EDFM/MHG METAR and TAF weather

Enter ICAO airport designator
Station Type Date Time Source
EDFM METAR 2019/04/21 17:50 UTC NOAA

EDFM 211750Z 08006KT CAVOK 23/M00 Q1014


Station Type Date Time Source
EDFM Decoded METAR 2019/04/21 17:50 UTC NOAA

Baden Wurttemberg, Neuostheim, Germany (EDFM) 49-28-21N 008-30-56E
Apr 21, 2019 - 01:50 PM EDT / 2019.04.21 1750 UTC
Wind: from the E (080 degrees) at 7 MPH (6 KT):0
Visibility: greater than 7 mile(s):0
Temperature: 73 F (23 C)
Dew Point: 32 F (0 C)
Relative Humidity: 21%
Pressure (altimeter): 29.94 in. Hg (1014 hPa)
ob: EDFM 211750Z 08006KT CAVOK 23/M00 Q1014
cycle: 18

Station Type Date Time Source
EDFM TAF 2012/03/06 06:30 UTC NOAA

TAF EDFM 060519Z 0606/0621 15004KT 9999 FEW040

Example: see airport list